Time;durP1;ratioP1;P1;durP2;ratioP2;P2;SDS_P1;SDS_P2;PMS_P1;PMS_P2;Temp;Humidity;BMP_temperature;BMP_pressure;BME280_temperature;BME280_humidity;BME280_pressure;Samples;Min_cycle;Max_cycle;Signal;HPM_P1;HPM_P2
2023/07/29 00:00:09;;;;;;;9.70;4.85;;;;;;;;;;5114063;28;20036;-69
2023/07/29 00:02:40;;;;;;;14.82;5.00;;;;;;;;;;5114092;28;20507;-69
2023/07/29 00:05:08;;;;;;;10.02;4.88;;;;;;;;;;5114055;28;20441;-69
2023/07/29 00:07:36;;;;;;;8.05;4.72;;;;;;;;;;5114047;28;20485;-69
2023/07/29 00:10:03;;;;;;;13.15;5.70;;;;;;;;;;5113743;28;20043;-69
2023/07/29 00:12:31;;;;;;;11.95;6.10;;;;;;;;;;5112757;28;20035;-68
2023/07/29 00:14:58;;;;;;;8.60;5.90;;;;;;;;;;5113861;28;20119;-69
2023/07/29 00:17:26;;;;;;;10.70;5.88;;;;;;;;;;5109948;28;20036;-69
2023/07/29 00:19:54;;;;;;;12.48;6.55;;;;;;;;;;5093451;28;20048;-69
2023/07/29 00:22:21;;;;;;;13.45;6.25;;;;;;;;;;5093330;28;20040;-69
2023/07/29 00:24:57;;;;;;;10.05;6.25;;;;;;;;;;5093273;28;20119;-69
2023/07/29 00:27:24;;;;;;;8.98;5.97;;;;;;;;;;5093230;28;20064;-69
2023/07/29 00:29:52;;;;;;;9.82;5.05;;;;;;;;;;5093176;28;20109;-69
2023/07/29 00:32:19;;;;;;;9.10;5.78;;;;;;;;;;5091866;28;20563;-69
2023/07/29 00:34:47;;;;;;;9.65;5.95;;;;;;;;;;5091804;28;20470;-69
2023/07/29 00:37:14;;;;;;;11.48;5.90;;;;;;;;;;5091882;28;20051;-69
2023/07/29 00:39:42;;;;;;;14.63;6.57;;;;;;;;;;5091664;28;20051;-69
2023/07/29 00:42:10;;;;;;;11.90;5.78;;;;;;;;;;5091726;28;20127;-69
2023/07/29 00:44:37;;;;;;;11.77;6.25;;;;;;;;;;5091792;28;20498;-69
2023/07/29 00:47:06;;;;;;;9.70;6.13;;;;;;;;;;5074928;28;20487;-68
2023/07/29 00:49:34;;;;;;;10.57;5.68;;;;;;;;;;5075053;28;20767;-69
2023/07/29 00:52:02;;;;;;;9.68;5.90;;;;;;;;;;5091754;28;20055;-69
2023/07/29 00:54:30;;;;;;;13.82;6.90;;;;;;;;;;5091611;28;20036;-69
2023/07/29 00:56:57;;;;;;;11.25;6.72;;;;;;;;;;5092869;28;20367;-69
2023/07/29 00:59:28;;;;;;;9.85;5.70;;;;;;;;;;5091413;28;20052;-69
2023/07/29 01:01:55;;;;;;;10.10;5.97;;;;;;;;;;5091337;28;20040;-69
2023/07/29 01:04:23;;;;;;;9.63;6.28;;;;;;;;;;5091517;28;20048;-69
2023/07/29 01:06:59;;;;;;;10.52;5.70;;;;;;;;;;5092392;28;20048;-69
2023/07/29 01:09:48;;;;;;;10.43;5.78;;;;;;;;;;5091213;28;20071;-69
2023/07/29 01:12:48;;;;;;;9.38;6.07;;;;;;;;;;5091394;28;20048;-69
2023/07/29 01:15:23;;;;;;;11.23;5.75;;;;;;;;;;5059276;28;20070;-69
2023/07/29 01:17:53;;;;;;;13.55;6.05;;;;;;;;;;5091251;28;20123;-69
2023/07/29 01:20:20;;;;;;;10.77;6.00;;;;;;;;;;5092759;28;20040;-69
2023/07/29 01:22:48;;;;;;;13.43;6.25;;;;;;;;;;5091211;28;20131;-69
2023/07/29 01:25:16;;;;;;;14.55;6.30;;;;;;;;;;5091150;28;20048;-69
2023/07/29 01:27:45;;;;;;;12.52;6.50;;;;;;;;;;5074575;28;20054;-69
2023/07/29 01:30:13;;;;;;;14.02;7.07;;;;;;;;;;5093628;28;20409;-69
2023/07/29 01:32:51;;;;;;;15.25;6.63;;;;;;;;;;5096625;28;20121;-69
2023/07/29 01:35:25;;;;;;;14.00;7.05;;;;;;;;;;5095441;28;20048;-69
2023/07/29 01:37:56;;;;;;;15.73;7.53;;;;;;;;;;5095105;28;20048;-69
2023/07/29 01:40:25;;;;;;;14.63;7.50;;;;;;;;;;5095292;28;20078;-69
2023/07/29 01:42:53;;;;;;;13.05;6.93;;;;;;;;;;5095111;28;20075;-69
2023/07/29 01:45:24;;;;;;;15.75;7.22;;;;;;;;;;5095131;28;20122;-69
2023/07/29 01:47:52;;;;;;;13.90;7.35;;;;;;;;;;5094893;28;20158;-69
2023/07/29 01:50:21;;;;;;;14.07;6.95;;;;;;;;;;5096138;28;20486;-70
2023/07/29 01:52:48;;;;;;;14.48;7.15;;;;;;;;;;5094950;28;20047;-69
2023/07/29 01:55:16;;;;;;;12.00;6.55;;;;;;;;;;5078260;28;20044;-69
2023/07/29 01:57:44;;;;;;;12.20;6.78;;;;;;;;;;5094658;28;20044;-69
2023/07/29 02:00:12;;;;;;;14.43;6.82;;;;;;;;;;5094494;28;20048;-69
2023/07/29 02:02:45;;;;;;;12.25;6.80;;;;;;;;;;5094797;28;20059;-69
2023/07/29 02:05:13;;;;;;;11.05;6.53;;;;;;;;;;5094436;28;20259;-71
2023/07/29 02:07:40;;;;;;;15.43;7.00;;;;;;;;;;5094578;28;20036;-73
2023/07/29 02:10:08;;;;;;;15.07;6.28;;;;;;;;;;5094577;28;20127;-73
2023/07/29 02:12:35;;;;;;;11.40;6.40;;;;;;;;;;5094579;28;20450;-72
2023/07/29 02:15:03;;;;;;;10.60;6.13;;;;;;;;;;5094584;28;20048;-73
2023/07/29 02:17:31;;;;;;;12.50;6.50;;;;;;;;;;5094361;28;20055;-73
2023/07/29 02:19:59;;;;;;;11.65;6.18;;;;;;;;;;5077708;28;20052;-73
2023/07/29 02:22:26;;;;;;;12.93;6.40;;;;;;;;;;5094435;28;20051;-73
2023/07/29 02:24:54;;;;;;;11.93;6.35;;;;;;;;;;5077565;28;20036;-73
2023/07/29 02:27:22;;;;;;;13.05;6.47;;;;;;;;;;5094268;28;20072;-72
2023/07/29 02:29:50;;;;;;;13.50;6.70;;;;;;;;;;5114025;28;20036;-73
2023/07/29 02:32:17;;;;;;;11.85;6.53;;;;;;;;;;5115530;28;20040;-72
2023/07/29 02:34:44;;;;;;;13.02;6.90;;;;;;;;;;5111054;28;20101;-72
2023/07/29 02:37:12;;;;;;;11.60;6.97;;;;;;;;;;5114347;28;20405;-70
2023/07/29 02:39:40;;;;;;;11.98;6.80;;;;;;;;;;5114450;28;20558;-70
2023/07/29 02:42:08;;;;;;;12.68;7.38;;;;;;;;;;5114325;28;20044;-70
2023/07/29 02:44:35;;;;;;;13.98;7.15;;;;;;;;;;5114361;28;20050;-70
2023/07/29 02:47:03;;;;;;;15.05;7.18;;;;;;;;;;5114371;28;20089;-70
2023/07/29 02:49:30;;;;;;;13.32;6.78;;;;;;;;;;5115674;28;20035;-67
2023/07/29 02:51:58;;;;;;;16.00;6.95;;;;;;;;;;5114255;28;20078;-66
2023/07/29 02:54:25;;;;;;;14.93;6.88;;;;;;;;;;5102077;28;20052;-66
2023/07/29 02:56:54;;;;;;;13.98;7.13;;;;;;;;;;5076189;28;20044;-65
2023/07/29 02:59:22;;;;;;;15.52;6.88;;;;;;;;;;5093637;28;20109;-65
2023/07/29 03:01:49;;;;;;;16.55;7.15;;;;;;;;;;5093567;28;20417;-66
2023/07/29 03:04:17;;;;;;;13.50;7.00;;;;;;;;;;5093762;28;20497;-67
2023/07/29 03:06:47;;;;;;;17.95;7.13;;;;;;;;;;5094678;28;20127;-62
2023/07/29 03:09:15;;;;;;;14.02;6.55;;;;;;;;;;5093019;28;20046;-63
2023/07/29 03:11:42;;;;;;;11.13;6.45;;;;;;;;;;5093537;28;20052;-63
2023/07/29 03:14:10;;;;;;;14.25;6.68;;;;;;;;;;5093433;28;20142;-63
2023/07/29 03:16:38;;;;;;;11.35;6.50;;;;;;;;;;5094760;28;20044;-63
2023/07/29 03:19:06;;;;;;;12.55;6.05;;;;;;;;;;5093292;28;20046;-63
2023/07/29 03:21:34;;;;;;;10.38;6.03;;;;;;;;;;5093245;28;20076;-63
2023/07/29 03:24:01;;;;;;;16.10;6.45;;;;;;;;;;5093284;28;20070;-62
2023/07/29 03:26:29;;;;;;;14.20;6.40;;;;;;;;;;5093077;28;20078;-63
2023/07/29 03:28:56;;;;;;;10.18;6.40;;;;;;;;;;5093173;28;20055;-66
2023/07/29 03:31:24;;;;;;;13.68;6.55;;;;;;;;;;5094225;28;20059;-62
2023/07/29 03:33:52;;;;;;;16.00;6.63;;;;;;;;;;5094363;28;20379;-63
2023/07/29 03:36:19;;;;;;;12.80;5.82;;;;;;;;;;5092965;28;20105;-63
2023/07/29 03:38:47;;;;;;;12.30;6.65;;;;;;;;;;5092974;28;20044;-63
2023/07/29 03:41:15;;;;;;;10.85;6.40;;;;;;;;;;5076179;28;20123;-62
2023/07/29 03:43:42;;;;;;;15.65;7.10;;;;;;;;;;5075903;28;20131;-62
2023/07/29 03:46:10;;;;;;;11.95;6.78;;;;;;;;;;5091622;28;20139;-63
2023/07/29 03:48:40;;;;;;;12.27;7.35;;;;;;;;;;5090832;28;20074;-64
2023/07/29 03:51:08;;;;;;;14.40;7.32;;;;;;;;;;5092458;28;20040;-63
2023/07/29 03:53:35;;;;;;;12.50;7.65;;;;;;;;;;5091941;28;20040;-62
2023/07/29 03:56:03;;;;;;;13.18;7.32;;;;;;;;;;5092519;28;20066;-62
2023/07/29 03:58:30;;;;;;;16.13;7.50;;;;;;;;;;5092234;28;20091;-61
2023/07/29 04:00:58;;;;;;;16.23;7.65;;;;;;;;;;5092747;28;20083;-62
2023/07/29 04:03:26;;;;;;;13.70;7.53;;;;;;;;;;5075568;28;20044;-63
2023/07/29 04:05:55;;;;;;;16.90;7.47;;;;;;;;;;5092450;28;20070;-71
2023/07/29 04:08:23;;;;;;;20.20;7.82;;;;;;;;;;5092464;28;20517;-62
2023/07/29 04:10:51;;;;;;;13.38;7.78;;;;;;;;;;5092152;28;20048;-70
2023/07/29 04:13:18;;;;;;;15.45;7.95;;;;;;;;;;5092241;28;20036;-63
2023/07/29 04:15:46;;;;;;;10.10;6.70;;;;;;;;;;5075534;28;20048;-63
2023/07/29 04:18:13;;;;;;;10.60;6.70;;;;;;;;;;5093415;28;20602;-67
2023/07/29 04:20:42;;;;;;;12.98;6.57;;;;;;;;;;5091042;28;20043;-62
2023/07/29 04:23:10;;;;;;;9.43;6.10;;;;;;;;;;5091571;28;20036;-62
2023/07/29 04:25:37;;;;;;;10.93;6.43;;;;;;;;;;5091577;28;20063;-65
2023/07/29 04:28:05;;;;;;;11.35;6.63;;;;;;;;;;5091065;28;20126;-62
2023/07/29 04:30:33;;;;;;;14.38;7.15;;;;;;;;;;5091554;28;20044;-62
2023/07/29 04:33:00;;;;;;;13.88;7.40;;;;;;;;;;5091811;28;20050;-68
2023/07/29 04:35:28;;;;;;;14.38;7.43;;;;;;;;;;5091907;28;20033;-65
2023/07/29 04:37:55;;;;;;;14.10;8.18;;;;;;;;;;5091915;28;20131;-62
2023/07/29 04:40:23;;;;;;;17.17;7.93;;;;;;;;;;5092696;28;20043;-61
2023/07/29 04:42:51;;;;;;;16.40;8.80;;;;;;;;;;5091814;28;20412;-61
2023/07/29 04:45:19;;;;;;;20.92;8.90;;;;;;;;;;5091698;28;20036;-61
2023/07/29 04:47:46;;;;;;;16.25;7.88;;;;;;;;;;5091637;28;20699;-62
2023/07/29 04:50:14;;;;;;;17.40;8.35;;;;;;;;;;5093575;28;20557;-62
2023/07/29 04:52:41;;;;;;;15.00;8.07;;;;;;;;;;5095668;28;20040;-61
2023/07/29 04:55:09;;;;;;;17.58;7.90;;;;;;;;;;5091474;28;20040;-61
2023/07/29 04:57:36;;;;;;;11.50;8.10;;;;;;;;;;5091320;28;20391;-62
2023/07/29 05:00:04;;;;;;;12.73;7.85;;;;;;;;;;5092799;28;20064;-61
2023/07/29 05:02:32;;;;;;;17.38;8.02;;;;;;;;;;5092979;28;20573;-61
2023/07/29 05:04:59;;;;;;;10.05;7.35;;;;;;;;;;5090638;28;20043;-61
2023/07/29 05:07:27;;;;;;;14.70;7.47;;;;;;;;;;5092661;28;20028;-61
2023/07/29 05:09:54;;;;;;;14.77;7.45;;;;;;;;;;5091199;28;20455;-61
2023/07/29 05:12:22;;;;;;;13.85;7.22;;;;;;;;;;5091157;28;20071;-61
2023/07/29 05:14:50;;;;;;;13.48;7.75;;;;;;;;;;5091860;28;20039;-61
2023/07/29 05:17:17;;;;;;;12.57;7.45;;;;;;;;;;5090690;28;20042;-61
2023/07/29 05:19:45;;;;;;;13.95;8.13;;;;;;;;;;5090732;28;20048;-61
2023/07/29 05:22:12;;;;;;;14.77;7.90;;;;;;;;;;5090659;28;20040;-63
2023/07/29 05:24:40;;;;;;;17.85;8.77;;;;;;;;;;5090279;28;20097;-62
2023/07/29 05:27:08;;;;;;;22.73;12.38;;;;;;;;;;5090623;28;20028;-63
2023/07/29 05:29:36;;;;;;;17.42;9.38;;;;;;;;;;5090768;28;20067;-63
2023/07/29 05:32:03;;;;;;;22.42;12.07;;;;;;;;;;5090642;28;20036;-69
2023/07/29 05:34:31;;;;;;;19.35;10.50;;;;;;;;;;5089101;28;20036;-64
2023/07/29 05:36:58;;;;;;;12.80;7.78;;;;;;;;;;5092496;28;20046;-63
2023/07/29 05:39:26;;;;;;;11.90;6.90;;;;;;;;;;5096177;28;20043;-62
2023/07/29 05:41:53;;;;;;;10.40;6.63;;;;;;;;;;5091818;28;20036;-62
2023/07/29 05:44:21;;;;;;;14.15;7.10;;;;;;;;;;5092230;28;20119;-62
2023/07/29 05:46:48;;;;;;;12.65;6.68;;;;;;;;;;5090755;28;20444;-62
2023/07/29 05:49:16;;;;;;;11.63;6.47;;;;;;;;;;5090514;28;20040;-62
2023/07/29 05:51:44;;;;;;;9.85;6.35;;;;;;;;;;5090105;28;20040;-61
2023/07/29 05:54:12;;;;;;;11.98;6.93;;;;;;;;;;5090011;28;20044;-62
2023/07/29 05:56:39;;;;;;;9.20;5.47;;;;;;;;;;5094397;28;20127;-62
2023/07/29 05:59:09;;;;;;;9.10;5.22;;;;;;;;;;5094734;28;20039;-62
2023/07/29 06:01:36;;;;;;;8.07;5.35;;;;;;;;;;5084026;28;20047;-62
2023/07/29 06:04:04;;;;;;;13.85;5.93;;;;;;;;;;5085150;28;20126;-62
2023/07/29 06:06:31;;;;;;;9.48;5.30;;;;;;;;;;5085065;28;20405;-62
2023/07/29 06:08:59;;;;;;;10.63;5.97;;;;;;;;;;5089794;28;20036;-62
2023/07/29 06:11:27;;;;;;;9.13;5.63;;;;;;;;;;5087211;28;20139;-62
2023/07/29 06:13:54;;;;;;;8.35;5.57;;;;;;;;;;5086384;28;20044;-61
2023/07/29 06:16:22;;;;;;;15.07;6.45;;;;;;;;;;5082807;28;20043;-62
2023/07/29 06:18:52;;;;;;;9.52;5.70;;;;;;;;;;5087271;28;20047;-62
2023/07/29 06:21:20;;;;;;;8.10;5.00;;;;;;;;;;5086564;28;20044;-62
2023/07/29 06:23:48;;;;;;;9.18;5.25;;;;;;;;;;5074776;28;20409;-62
2023/07/29 06:26:15;;;;;;;8.90;5.05;;;;;;;;;;5074180;28;20044;-62
2023/07/29 06:28:43;;;;;;;7.43;4.85;;;;;;;;;;5075187;28;20037;-62
2023/07/29 06:31:10;;;;;;;6.32;4.13;;;;;;;;;;5074010;28;20041;-63
2023/07/29 06:33:38;;;;;;;9.73;4.40;;;;;;;;;;5086526;28;20036;-63
2023/07/29 06:36:05;;;;;;;10.52;3.97;;;;;;;;;;5083747;28;20043;-63
2023/07/29 06:38:33;;;;;;;7.72;4.30;;;;;;;;;;5085273;28;20032;-63
2023/07/29 06:41:00;;;;;;;6.95;3.97;;;;;;;;;;5086085;28;20041;-65
2023/07/29 06:43:28;;;;;;;6.05;4.00;;;;;;;;;;5085601;28;20196;-62
2023/07/29 06:45:55;;;;;;;7.65;4.50;;;;;;;;;;5087874;28;20044;-63
2023/07/29 06:48:23;;;;;;;5.32;3.38;;;;;;;;;;5069757;28;20139;-62
2023/07/29 06:50:51;;;;;;;5.57;4.00;;;;;;;;;;5086801;28;20452;-62
2023/07/29 06:53:19;;;;;;;5.53;3.80;;;;;;;;;;5080122;28;20079;-63
2023/07/29 06:55:46;;;;;;;6.00;4.30;;;;;;;;;;5069586;28;20055;-62
2023/07/29 06:58:14;;;;;;;6.38;3.78;;;;;;;;;;5077109;28;20056;-63
2023/07/29 07:00:42;;;;;;;8.80;4.05;;;;;;;;;;5082245;28;20111;-63
2023/07/29 07:03:09;;;;;;;5.75;3.85;;;;;;;;;;5079855;28;20060;-65
2023/07/29 07:05:37;;;;;;;9.20;4.45;;;;;;;;;;5085869;28;20127;-63
2023/07/29 07:08:04;;;;;;;7.78;3.83;;;;;;;;;;5069636;28;20115;-62
2023/07/29 07:10:33;;;;;;;7.70;4.15;;;;;;;;;;5069216;28;20056;-64
2023/07/29 07:13:01;;;;;;;8.05;4.10;;;;;;;;;;5082147;28;20131;-64
2023/07/29 07:15:33;;;;;;;7.47;4.00;;;;;;;;;;5073330;28;20132;-61
2023/07/29 07:18:00;;;;;;;9.45;4.70;;;;;;;;;;5078988;28;20045;-62
2023/07/29 07:20:28;;;;;;;7.20;3.95;;;;;;;;;;5077623;28;20033;-61
2023/07/29 07:22:56;;;;;;;5.97;3.60;;;;;;;;;;5071602;28;20040;-62
2023/07/29 07:25:23;;;;;;;5.22;3.60;;;;;;;;;;5080100;28;20044;-62
2023/07/29 07:27:51;;;;;;;5.80;3.55;;;;;;;;;;5074470;28;20153;-62
2023/07/29 07:30:18;;;;;;;6.85;3.50;;;;;;;;;;5070630;28;20044;-63
2023/07/29 07:32:46;;;;;;;4.28;3.22;;;;;;;;;;5070289;28;20052;-63
2023/07/29 07:35:13;;;;;;;4.53;3.33;;;;;;;;;;5070862;28;20513;-63
2023/07/29 07:37:41;;;;;;;4.18;3.05;;;;;;;;;;5070794;28;20044;-63
2023/07/29 07:40:09;;;;;;;5.43;2.97;;;;;;;;;;5073534;28;20059;-62
2023/07/29 07:42:36;;;;;;;3.75;3.03;;;;;;;;;;5068950;28;20072;-63
2023/07/29 07:45:04;;;;;;;4.28;2.70;;;;;;;;;;5073500;28;20032;-63
2023/07/29 07:47:31;;;;;;;5.43;3.20;;;;;;;;;;5067583;28;20047;-63
2023/07/29 07:49:59;;;;;;;9.38;3.30;;;;;;;;;;5074949;28;20512;-62
2023/07/29 07:52:26;;;;;;;4.82;3.25;;;;;;;;;;5082751;28;20044;-63
2023/07/29 07:54:55;;;;;;;4.35;2.90;;;;;;;;;;5082404;28;20044;-62
2023/07/29 07:57:22;;;;;;;5.95;2.97;;;;;;;;;;5085271;28;20036;-62
2023/07/29 07:59:52;;;;;;;5.43;2.90;;;;;;;;;;5078709;28;20036;-62
2023/07/29 08:02:20;;;;;;;2.85;2.55;;;;;;;;;;5074750;28;20449;-62
2023/07/29 08:04:48;;;;;;;6.43;2.60;;;;;;;;;;5075491;28;20090;-64
2023/07/29 08:07:15;;;;;;;3.38;2.72;;;;;;;;;;5072880;28;20055;-66
2023/07/29 08:09:43;;;;;;;3.47;2.85;;;;;;;;;;5083176;28;20123;-63
2023/07/29 08:12:10;;;;;;;5.07;2.67;;;;;;;;;;5070471;28;20494;-64
2023/07/29 08:14:38;;;;;;;4.45;2.97;;;;;;;;;;5081155;28;20111;-64
2023/07/29 08:17:05;;;;;;;4.57;2.90;;;;;;;;;;5081068;28;20093;-64
2023/07/29 08:19:35;;;;;;;5.50;2.80;;;;;;;;;;5083690;28;20036;-63
2023/07/29 08:22:03;;;;;;;5.40;2.75;;;;;;;;;;5077636;28;20040;-63
2023/07/29 08:24:31;;;;;;;5.70;2.60;;;;;;;;;;5084716;28;20056;-63
2023/07/29 08:26:58;;;;;;;3.00;2.38;;;;;;;;;;5066278;28;20048;-63
2023/07/29 08:29:26;;;;;;;2.80;2.50;;;;;;;;;;5068406;28;20040;-63
2023/07/29 08:31:56;;;;;;;4.65;2.30;;;;;;;;;;5082459;28;20036;-63
2023/07/29 08:34:24;;;;;;;5.20;2.50;;;;;;;;;;5087741;28;20036;-63
2023/07/29 08:36:51;;;;;;;6.70;2.58;;;;;;;;;;5091879;28;20101;-63
2023/07/29 08:39:19;;;;;;;3.30;2.08;;;;;;;;;;5090863;28;20036;-63
2023/07/29 08:41:51;;;;;;;3.05;2.47;;;;;;;;;;5092387;28;20134;-63
2023/07/29 08:44:22;;;;;;;5.75;2.55;;;;;;;;;;5081689;28;20050;-64
2023/07/29 08:46:51;;;;;;;3.83;2.30;;;;;;;;;;5082954;28;20060;-64
2023/07/29 08:49:19;;;;;;;3.88;3.20;;;;;;;;;;5077747;28;20040;-64
2023/07/29 08:51:50;;;;;;;2.83;2.53;;;;;;;;;;5071823;28;20033;-63
2023/07/29 08:54:19;;;;;;;5.50;2.70;;;;;;;;;;5079228;28;20048;-64
2023/07/29 08:56:46;;;;;;;5.65;2.83;;;;;;;;;;5093738;28;20097;-64
2023/07/29 08:59:16;;;;;;;5.45;2.78;;;;;;;;;;5083092;28;20052;-63
2023/07/29 09:01:44;;;;;;;4.57;2.50;;;;;;;;;;5082940;28;20049;-64
2023/07/29 09:04:11;;;;;;;3.38;2.58;;;;;;;;;;5086726;28;20044;-64
2023/07/29 09:06:39;;;;;;;3.08;2.55;;;;;;;;;;5074546;28;20402;-64
2023/07/29 09:09:08;;;;;;;4.47;2.70;;;;;;;;;;5090869;28;20115;-64
2023/07/29 09:11:36;;;;;;;4.43;2.72;;;;;;;;;;5082942;28;20452;-64
2023/07/29 09:14:04;;;;;;;5.22;2.75;;;;;;;;;;5072462;28;20064;-63
2023/07/29 09:16:32;;;;;;;3.47;2.60;;;;;;;;;;5076115;28;20036;-65
2023/07/29 09:19:03;;;;;;;4.22;2.70;;;;;;;;;;5092580;28;20047;-64
2023/07/29 09:21:31;;;;;;;3.80;2.75;;;;;;;;;;5092467;28;20068;-63
2023/07/29 09:24:03;;;;;;;6.53;3.08;;;;;;;;;;5072582;28;20127;-64
2023/07/29 09:26:31;;;;;;;4.95;3.35;;;;;;;;;;5072166;28;20059;-65
2023/07/29 09:28:59;;;;;;;3.53;2.90;;;;;;;;;;5072251;28;20048;-65
2023/07/29 09:31:27;;;;;;;5.72;2.90;;;;;;;;;;5072100;28;20045;-64
2023/07/29 09:33:59;;;;;;;3.50;2.75;;;;;;;;;;5072071;28;20052;-64
2023/07/29 09:36:27;;;;;;;5.32;2.75;;;;;;;;;;5072155;28;20044;-64
2023/07/29 09:38:54;;;;;;;3.38;2.70;;;;;;;;;;5072093;28;20037;-63
2023/07/29 09:41:26;;;;;;;4.15;3.05;;;;;;;;;;5070868;28;20505;-63
2023/07/29 09:44:02;;;;;;;5.03;2.90;;;;;;;;;;5070732;28;20041;-64
2023/07/29 09:46:34;;;;;;;6.82;3.30;;;;;;;;;;5072018;28;20696;-63
2023/07/29 09:49:03;;;;;;;5.97;3.88;;;;;;;;;;5071920;28;20044;-64
2023/07/29 09:51:31;;;;;;;6.18;4.50;;;;;;;;;;5073758;28;20040;-63
2023/07/29 09:54:02;;;;;;;5.97;2.78;;;;;;;;;;5075943;28;20055;-63
2023/07/29 09:56:31;;;;;;;5.28;3.70;;;;;;;;;;5075859;28;20037;-63
2023/07/29 09:58:58;;;;;;;5.40;3.17;;;;;;;;;;5074341;28;20395;-63
2023/07/29 10:01:28;;;;;;;8.98;4.20;;;;;;;;;;5084463;28;20040;-63
2023/07/29 10:03:57;;;;;;;5.45;3.50;;;;;;;;;;5087257;28;20482;-63
2023/07/29 10:06:25;;;;;;;3.22;2.40;;;;;;;;;;5089137;28;20032;-63
2023/07/29 10:08:52;;;;;;;2.70;2.35;;;;;;;;;;5096127;28;20374;-63
2023/07/29 10:11:21;;;;;;;5.43;2.47;;;;;;;;;;5081957;28;20084;-62
2023/07/29 10:13:49;;;;;;;5.78;2.88;;;;;;;;;;5079162;28;20393;-63
2023/07/29 10:16:31;;;;;;;2.78;2.42;;;;;;;;;;5095775;28;20441;-67
2023/07/29 10:18:59;;;;;;;2.60;2.40;;;;;;;;;;5095811;28;20048;-63
2023/07/29 10:21:27;;;;;;;5.85;3.42;;;;;;;;;;5095646;28;20119;-63
2023/07/29 10:23:56;;;;;;;5.25;3.70;;;;;;;;;;5090720;28;20115;-63
2023/07/29 10:26:24;;;;;;;5.57;3.85;;;;;;;;;;5089687;28;20044;-63
2023/07/29 10:28:53;;;;;;;6.47;3.47;;;;;;;;;;5088869;28;20047;-62
2023/07/29 10:31:21;;;;;;;4.03;2.75;;;;;;;;;;5072933;28;20062;-61
2023/07/29 10:33:49;;;;;;;5.25;3.30;;;;;;;;;;5074143;28;20052;-63
2023/07/29 10:36:17;;;;;;;5.90;3.75;;;;;;;;;;5073674;28;20040;-63
2023/07/29 10:38:48;;;;;;;5.63;3.78;;;;;;;;;;5080015;28;20044;-62
2023/07/29 10:41:16;;;;;;;3.75;2.50;;;;;;;;;;5074131;28;20043;-63
2023/07/29 10:43:43;;;;;;;5.43;2.80;;;;;;;;;;5078056;28;20060;-63
2023/07/29 10:46:20;;;;;;;3.40;2.65;;;;;;;;;;5084071;28;20040;-63
2023/07/29 10:48:51;;;;;;;5.13;2.72;;;;;;;;;;5082181;28;20067;-63
2023/07/29 10:51:24;;;;;;;3.47;2.42;;;;;;;;;;5071503;28;20155;-63
2023/07/29 10:53:53;;;;;;;4.68;2.70;;;;;;;;;;5074439;28;20617;-64
2023/07/29 10:56:27;;;;;;;4.25;3.10;;;;;;;;;;5074403;28;20058;-64
2023/07/29 10:58:55;;;;;;;;;;;;;;;;;;5076135;28;20088;-62
2023/07/29 11:01:32;;;;;;;4.20;2.45;;;;;;;;;;5076277;28;19973;-63
2023/07/29 11:04:19;;;;;;;4.07;2.47;;;;;;;;;;5073572;28;20050;-62
2023/07/29 11:07:11;;;;;;;3.95;2.50;;;;;;;;;;5075376;28;20044;-63
2023/07/29 11:09:56;;;;;;;5.85;4.22;;;;;;;;;;5067787;28;20059;-63
2023/07/29 11:12:37;;;;;;;3.80;2.80;;;;;;;;;;5072457;28;20044;-63
2023/07/29 11:15:05;;;;;;;3.63;2.80;;;;;;;;;;5072616;28;20197;-63
2023/07/29 11:17:36;;;;;;;4.07;2.90;;;;;;;;;;5072372;28;20082;-63
2023/07/29 11:20:04;;;;;;;4.18;3.38;;;;;;;;;;5072958;28;20052;-63
2023/07/29 11:22:31;;;;;;;4.32;2.50;;;;;;;;;;5069390;28;20174;-63
2023/07/29 11:25:01;;;;;;;3.55;2.67;;;;;;;;;;5076977;28;20115;-62
2023/07/29 11:27:28;;;;;;;4.35;2.33;;;;;;;;;;5071018;28;20063;-62
2023/07/29 11:29:59;;;;;;;3.00;2.67;;;;;;;;;;5070494;28;20148;-63
2023/07/29 11:32:27;;;;;;;4.80;2.70;;;;;;;;;;5072218;28;20036;-63
2023/07/29 11:34:54;;;;;;;4.35;3.20;;;;;;;;;;5077118;28;20082;-64
2023/07/29 11:37:22;;;;;;;3.22;2.45;;;;;;;;;;5073128;28;20055;-63
2023/07/29 11:39:51;;;;;;;8.25;5.90;;;;;;;;;;5088345;28;20344;-63
2023/07/29 11:42:19;;;;;;;3.95;2.47;;;;;;;;;;5093260;28;20393;-63
2023/07/29 11:44:47;;;;;;;7.22;4.25;;;;;;;;;;5074125;28;20052;-63
2023/07/29 11:47:14;;;;;;;4.47;2.67;;;;;;;;;;5073774;28;20098;-63
2023/07/29 11:49:42;;;;;;;3.63;2.75;;;;;;;;;;5073749;28;20119;-63
2023/07/29 11:52:10;;;;;;;4.38;3.40;;;;;;;;;;5073705;28;20110;-63
2023/07/29 11:54:38;;;;;;;7.55;5.75;;;;;;;;;;5073746;28;20044;-63
2023/07/29 11:57:09;;;;;;;4.28;3.03;;;;;;;;;;5073607;28;20044;-63
2023/07/29 11:59:38;;;;;;;3.33;2.80;;;;;;;;;;5073588;28;20053;-63
2023/07/29 12:02:11;;;;;;;6.85;5.68;;;;;;;;;;5087370;28;20040;-63
2023/07/29 12:04:39;;;;;;;6.90;6.10;;;;;;;;;;5092725;28;20058;-63
2023/07/29 12:07:06;;;;;;;7.20;5.50;;;;;;;;;;5093758;28;20044;-63
2023/07/29 12:09:35;;;;;;;5.63;4.25;;;;;;;;;;5088395;28;20047;-64
2023/07/29 12:12:03;;;;;;;9.00;7.32;;;;;;;;;;5080006;28;20119;-63
2023/07/29 12:14:31;;;;;;;3.03;2.40;;;;;;;;;;5077791;28;20056;-63
2023/07/29 12:17:02;;;;;;;5.95;4.10;;;;;;;;;;5073440;28;20128;-62
2023/07/29 12:19:36;;;;;;;3.55;2.80;;;;;;;;;;5073249;28;20114;-63
2023/07/29 12:22:05;;;;;;;9.65;5.85;;;;;;;;;;5073149;28;20064;-62
2023/07/29 12:24:33;;;;;;;5.65;3.60;;;;;;;;;;5073337;28;20401;-63
2023/07/29 12:27:01;;;;;;;3.78;2.53;;;;;;;;;;5073002;28;20040;-64
2023/07/29 12:29:40;;;;;;;5.18;3.80;;;;;;;;;;5073122;28;20040;-64
2023/07/29 12:32:08;;;;;;;4.38;2.70;;;;;;;;;;5079011;28;20130;-63
2023/07/29 12:34:36;;;;;;;4.07;2.33;;;;;;;;;;5098608;28;20051;-62
2023/07/29 12:37:05;;;;;;;2.88;2.28;;;;;;;;;;5088278;28;20401;-63
2023/07/29 12:39:33;;;;;;;4.72;2.42;;;;;;;;;;5062899;28;20591;-64
2023/07/29 12:42:01;;;;;;;3.85;3.15;;;;;;;;;;5101907;28;20074;-64
2023/07/29 12:44:33;;;;;;;4.03;2.75;;;;;;;;;;5088914;28;20036;-63
2023/07/29 12:47:04;;;;;;;5.50;2.70;;;;;;;;;;5080150;28;20052;-66
2023/07/29 12:49:32;;;;;;;3.40;2.50;;;;;;;;;;5092114;28;20082;-64
2023/07/29 12:52:00;;;;;;;3.10;2.50;;;;;;;;;;5083397;28;20047;-64
2023/07/29 12:54:28;;;;;;;3.25;2.47;;;;;;;;;;5080901;28;20098;-63
2023/07/29 12:56:55;;;;;;;31.55;21.98;;;;;;;;;;5088511;28;20040;-64
2023/07/29 12:59:25;;;;;;;5.13;4.32;;;;;;;;;;5092157;28;20048;-64
2023/07/29 13:01:52;;;;;;;13.32;9.27;;;;;;;;;;5092934;28;20489;-64
2023/07/29 13:04:20;;;;;;;5.25;4.00;;;;;;;;;;5092265;28;20516;-64
2023/07/29 13:06:49;;;;;;;14.13;9.98;;;;;;;;;;5086823;28;20049;-64
2023/07/29 13:09:16;;;;;;;17.88;12.98;;;;;;;;;;5084444;28;20032;-65
2023/07/29 13:11:44;;;;;;;18.45;13.20;;;;;;;;;;5092583;28;20036;-65
2023/07/29 13:14:12;;;;;;;8.70;6.28;;;;;;;;;;5092487;28;20379;-64
2023/07/29 13:16:39;;;;;;;5.30;3.50;;;;;;;;;;5092488;28;20560;-65
2023/07/29 13:19:08;;;;;;;7.50;5.70;;;;;;;;;;5092623;28;20398;-65
2023/07/29 13:21:35;;;;;;;12.77;10.05;;;;;;;;;;5087021;28;20037;-65
2023/07/29 13:24:03;;;;;;;8.35;7.28;;;;;;;;;;5087238;28;20036;-65
2023/07/29 13:26:30;;;;;;;8.57;5.72;;;;;;;;;;5073152;28;20044;-65
2023/07/29 13:28:58;;;;;;;4.60;2.63;;;;;;;;;;5085513;28;20036;-65
2023/07/29 13:31:25;;;;;;;6.07;3.20;;;;;;;;;;5080367;28;20037;-65
2023/07/29 13:33:53;;;;;;;4.55;3.63;;;;;;;;;;5074417;28;20056;-66
2023/07/29 13:36:20;;;;;;;5.35;3.17;;;;;;;;;;5092127;28;20101;-66
2023/07/29 13:38:48;;;;;;;3.85;2.47;;;;;;;;;;5091662;28;20048;-65
2023/07/29 13:41:15;;;;;;;6.60;3.78;;;;;;;;;;5099795;28;20053;-65
2023/07/29 13:43:43;;;;;;;5.13;2.63;;;;;;;;;;5082392;28;20123;-65
2023/07/29 13:46:10;;;;;;;3.22;2.50;;;;;;;;;;5094471;28;20413;-65
2023/07/29 13:48:38;;;;;;;3.67;2.95;;;;;;;;;;5095240;28;20493;-63
2023/07/29 13:51:05;;;;;;;4.05;2.78;;;;;;;;;;5096471;28;20043;-64
2023/07/29 13:53:33;;;;;;;2.92;2.60;;;;;;;;;;5092336;28;20419;-63
2023/07/29 13:56:00;;;;;;;3.08;2.38;;;;;;;;;;5094953;28;20066;-63
2023/07/29 13:58:28;;;;;;;6.93;2.88;;;;;;;;;;5080942;28;20448;-63
2023/07/29 14:00:55;;;;;;;4.05;3.05;;;;;;;;;;5086129;28;20036;-64
2023/07/29 14:03:26;;;;;;;7.65;2.60;;;;;;;;;;5078790;28;20368;-63
2023/07/29 14:05:53;;;;;;;6.13;3.53;;;;;;;;;;5071697;28;20040;-64
2023/07/29 14:08:22;;;;;;;5.03;3.78;;;;;;;;;;5072269;28;20033;-64
2023/07/29 14:10:50;;;;;;;3.78;2.72;;;;;;;;;;5078054;28;20046;-64
2023/07/29 14:13:18;;;;;;;4.43;2.85;;;;;;;;;;5091862;28;20044;-64
2023/07/29 14:15:45;;;;;;;3.83;2.60;;;;;;;;;;5078977;28;20055;-64
2023/07/29 14:18:13;;;;;;;3.17;2.60;;;;;;;;;;5080903;28;20037;-64
2023/07/29 14:20:41;;;;;;;3.85;2.70;;;;;;;;;;5087411;28;20041;-64
2023/07/29 14:23:08;;;;;;;4.53;2.55;;;;;;;;;;5082420;28;20098;-64
2023/07/29 14:25:36;;;;;;;3.17;2.10;;;;;;;;;;5089780;28;20151;-65
2023/07/29 14:28:03;;;;;;;4.50;2.42;;;;;;;;;;5090639;28;20037;-64
2023/07/29 14:30:31;;;;;;;5.38;2.70;;;;;;;;;;5071648;28;20044;-64
2023/07/29 14:32:58;;;;;;;5.97;2.72;;;;;;;;;;5088916;28;20052;-64
2023/07/29 14:35:26;;;;;;;3.45;2.97;;;;;;;;;;5091468;28;20130;-64
2023/07/29 14:37:54;;;;;;;5.03;2.78;;;;;;;;;;5091805;28;20687;-64
2023/07/29 14:40:21;;;;;;;4.07;2.75;;;;;;;;;;5090934;28;20047;-64
2023/07/29 14:42:48;;;;;;;4.75;3.10;;;;;;;;;;5090895;28;20042;-65
2023/07/29 14:45:16;;;;;;;4.82;2.90;;;;;;;;;;5093258;28;20119;-64